Weather at Dakhla Airport

Public forecast

Using degrees Celsius for public forecast. Weather courtesy of forecast.io.

Current aviation weather report (METAR) for Dakhla Airport

Report is more than 2 hours old.

Retrieved 2020/09/19 21:00 UTC (5 hours ago):

GMMH 192100Z 01023KT 6000 NSC 22/19 Q1012 NOSIG

Aviation forecast (TAF) for Dakhla Airport

Retrieved 2020-09-20 00:00 UTC (2 hours ago):

TAF GMMH 192300Z 2000/2106 04022KT 8000 NSC